McFall, Missouri
Current Conditions -  °F | °C
As of 7:53 PM on Friday 28 Nov 2014 (Local Time) from KLWD Reporting Station
Clear Clear  
Wind Chill: 35°   Ceiling: Unl
Heat Index: 41°   Visibility: 10mi
Dew Point: 32°   Wind: 9mph
Humidity: 70%   Direction: 170°S
Pressure: 29.73"   Gusts: NA
Location:  40.11°N, 94.22°W
Report Text: KLWD 290153Z AUTO 17008KT 10SM CLR 05/00 A2973 RMK AO2 SLP077 T00500000
Loading
Personal Weather Stations






























Interactive Weather Map New forecast layout! Learn more

10-Day Weather Forecast

Advertisements
Track Severe Weather on mobile